createdAt,value
2023-04-16T00:01:26.836Z,7.09
2023-04-16T00:03:53.493Z,7.19
2023-04-16T00:06:20.147Z,7.23
2023-04-16T00:08:46.736Z,7.14
2023-04-16T00:11:13.262Z,7.19
2023-04-16T00:13:39.682Z,7.28
2023-04-16T00:16:06.711Z,7.22
2023-04-16T00:18:33.163Z,7.19
2023-04-16T00:20:59.650Z,7.13
2023-04-16T00:23:26.157Z,7.11
2023-04-16T00:25:53.810Z,7.13
2023-04-16T00:28:20.392Z,7.17
2023-04-16T00:30:46.920Z,7.14
2023-04-16T00:33:13.483Z,7.18
2023-04-16T00:35:40.008Z,7.16
2023-04-16T00:38:06.477Z,7.11
2023-04-16T00:40:32.982Z,7.03
2023-04-16T00:42:59.543Z,7.05
2023-04-16T00:45:26.054Z,7.00
2023-04-16T00:47:52.589Z,7.07
2023-04-16T00:50:19.355Z,7.08
2023-04-16T00:52:48.413Z,7.00
2023-04-16T00:55:17.565Z,6.95
2023-04-16T00:57:44.359Z,6.97
2023-04-16T01:00:11.630Z,6.92
2023-04-16T01:02:39.137Z,6.93
2023-04-16T01:05:06.096Z,6.94
2023-04-16T01:07:32.576Z,7.00
2023-04-16T01:09:59.386Z,7.14
2023-04-16T01:12:25.863Z,7.03
2023-04-16T01:14:52.412Z,7.11
2023-04-16T01:17:18.897Z,7.10
2023-04-16T01:19:45.700Z,7.23
2023-04-16T01:22:12.424Z,7.18
2023-04-16T01:24:39.549Z,7.24
2023-04-16T01:27:09.763Z,7.24
2023-04-16T01:29:36.218Z,7.12
2023-04-16T01:32:02.824Z,7.13
2023-04-16T01:34:32.898Z,6.95
2023-04-16T01:36:59.527Z,7.15
2023-04-16T01:39:27.211Z,7.08
2023-04-16T01:41:53.704Z,7.17
2023-04-16T01:44:20.188Z,7.13
2023-04-16T01:46:46.673Z,6.90
2023-04-16T01:49:13.691Z,6.86
2023-04-16T01:51:40.230Z,6.96
2023-04-16T01:54:06.686Z,7.02
2023-04-16T01:56:33.280Z,6.98
2023-04-16T01:58:59.714Z,6.94
2023-04-16T02:01:31.635Z,6.94
2023-04-16T02:03:58.548Z,6.91
2023-04-16T02:06:27.347Z,6.97
2023-04-16T02:08:53.851Z,7.01
2023-04-16T02:11:21.169Z,6.92
2023-04-16T02:13:48.421Z,6.94
2023-04-16T02:16:16.941Z,6.97
2023-04-16T02:18:50.676Z,6.84
2023-04-16T02:21:20.234Z,6.88
2023-04-16T02:23:51.378Z,6.88
2023-04-16T02:26:21.272Z,7.00
2023-04-16T02:28:49.084Z,6.99
2023-04-16T02:31:19.414Z,7.04
2023-04-16T02:33:46.963Z,7.04
2023-04-16T02:36:13.509Z,6.97
2023-04-16T02:38:40.034Z,6.88
2023-04-16T02:41:06.710Z,7.02
2023-04-16T02:43:33.958Z,7.01
2023-04-16T02:46:01.594Z,7.03
2023-04-16T02:48:28.129Z,7.06
2023-04-16T02:50:54.626Z,6.90
2023-04-16T02:53:21.385Z,7.00
2023-04-16T02:55:55.259Z,6.96
2023-04-16T02:58:24.642Z,6.94
2023-04-16T03:00:52.759Z,6.96
2023-04-16T03:03:19.562Z,7.06
2023-04-16T03:05:46.060Z,6.84
2023-04-16T03:08:12.812Z,6.87
2023-04-16T03:10:39.501Z,6.91
2023-04-16T03:13:05.997Z,6.99
2023-04-16T03:15:32.771Z,6.88
2023-04-16T03:17:59.928Z,6.91
2023-04-16T03:20:26.417Z,6.90
2023-04-16T03:22:53.291Z,6.71
2023-04-16T03:25:20.064Z,6.76
2023-04-16T03:27:46.665Z,6.80
2023-04-16T03:30:14.875Z,6.69
2023-04-16T03:32:41.623Z,6.63
2023-04-16T03:35:09.395Z,6.67
2023-04-16T03:37:37.162Z,6.53
2023-04-16T03:40:05.779Z,6.62
2023-04-16T03:42:32.419Z,6.64
2023-04-16T03:44:59.389Z,6.59
2023-04-16T03:47:26.221Z,6.68
2023-04-16T03:49:56.274Z,6.73
2023-04-16T03:52:22.769Z,6.81
2023-04-16T03:54:49.281Z,6.85
2023-04-16T03:57:24.634Z,6.85
2023-04-16T03:59:54.000Z,6.82
2023-04-16T04:02:21.401Z,6.68
2023-04-16T04:04:48.888Z,6.74
2023-04-16T04:07:16.448Z,6.59
2023-04-16T04:09:43.154Z,6.69
2023-04-16T04:12:10.040Z,6.77
2023-04-16T04:14:39.919Z,6.78
2023-04-16T04:17:08.481Z,6.57
2023-04-16T04:19:34.997Z,6.64
2023-04-16T04:22:01.782Z,6.77
2023-04-16T04:24:28.259Z,6.85
2023-04-16T04:26:54.817Z,6.75
2023-04-16T04:29:22.600Z,6.77
2023-04-16T04:31:49.182Z,6.83
2023-04-16T04:34:16.003Z,6.75
2023-04-16T04:36:42.487Z,6.51
2023-04-16T04:39:09.885Z,6.71
2023-04-16T04:41:36.828Z,6.82
2023-04-16T04:44:03.719Z,6.89
2023-04-16T04:46:30.351Z,6.81
2023-04-16T04:48:56.877Z,6.92
2023-04-16T04:51:23.391Z,7.00
2023-04-16T04:53:49.864Z,7.02
2023-04-16T04:56:16.329Z,7.07
2023-04-16T04:58:42.836Z,7.05
2023-04-16T05:01:09.327Z,7.16
2023-04-16T05:03:36.078Z,6.98
2023-04-16T05:06:02.644Z,7.02
2023-04-16T05:08:29.099Z,7.04
2023-04-16T05:10:55.548Z,7.04
2023-04-16T05:13:22.059Z,7.05
2023-04-16T05:15:48.600Z,7.01
2023-04-16T05:18:15.058Z,6.90
2023-04-16T05:20:41.561Z,6.95
2023-04-16T05:23:08.050Z,6.97
2023-04-16T05:25:34.698Z,6.94
2023-04-16T05:28:01.201Z,6.86
2023-04-16T05:30:27.645Z,6.91
2023-04-16T05:32:54.166Z,6.93
2023-04-16T05:35:20.676Z,6.86
2023-04-16T05:37:47.120Z,6.92
2023-04-16T05:40:14.430Z,7.02
2023-04-16T05:42:40.910Z,6.92
2023-04-16T05:45:08.013Z,6.95
2023-04-16T05:47:34.489Z,6.91
2023-04-16T05:50:00.954Z,6.83
2023-04-16T05:52:27.434Z,6.93
2023-04-16T05:54:53.858Z,6.94
2023-04-16T05:57:20.386Z,6.88
2023-04-16T05:59:46.916Z,7.09
2023-04-16T06:02:13.544Z,7.12
2023-04-16T06:04:40.132Z,7.06
2023-04-16T06:07:06.994Z,7.20
2023-04-16T06:09:33.470Z,7.09
2023-04-16T06:12:00.033Z,7.22
2023-04-16T06:14:26.491Z,7.37
2023-04-16T06:16:53.026Z,7.39
2023-04-16T06:19:19.492Z,7.31
2023-04-16T06:21:46.118Z,7.36
2023-04-16T06:24:13.308Z,7.22
2023-04-16T06:26:39.849Z,7.20
2023-04-16T06:29:06.420Z,7.16
2023-04-16T06:31:33.004Z,7.18
2023-04-16T06:33:59.554Z,7.19
2023-04-16T06:36:27.544Z,7.17
2023-04-16T06:38:54.004Z,6.97
2023-04-16T06:41:22.634Z,7.09
2023-04-16T06:43:49.307Z,7.08
2023-04-16T06:46:15.799Z,7.13
2023-04-16T06:48:42.542Z,7.15
2023-04-16T06:51:09.128Z,7.19
2023-04-16T06:53:37.488Z,7.13
2023-04-16T06:56:04.330Z,7.11
2023-04-16T06:58:30.881Z,7.16
2023-04-16T07:00:57.418Z,7.22
2023-04-16T07:03:24.040Z,7.26
2023-04-16T07:05:50.612Z,7.27
2023-04-16T07:08:17.053Z,7.22
2023-04-16T07:10:43.588Z,7.14
2023-04-16T07:13:10.132Z,7.22
2023-04-16T07:15:36.740Z,7.18
2023-04-16T07:18:03.321Z,7.26
2023-04-16T07:20:29.970Z,7.34
2023-04-16T07:22:56.723Z,7.38
2023-04-16T07:25:23.185Z,7.34
2023-04-16T07:27:49.643Z,7.30
2023-04-16T07:30:16.131Z,7.34
2023-04-16T07:32:42.687Z,7.29
2023-04-16T07:35:09.451Z,7.32
2023-04-16T07:37:35.913Z,7.27
2023-04-16T07:40:02.611Z,7.48
2023-04-16T07:42:29.095Z,7.73
2023-04-16T07:44:55.600Z,7.81
2023-04-16T07:47:23.133Z,7.73
2023-04-16T07:49:50.653Z,7.86
2023-04-16T07:52:17.122Z,7.92
2023-04-16T07:54:43.595Z,7.93
2023-04-16T07:57:11.501Z,8.17
2023-04-16T07:59:37.987Z,8.08
2023-04-16T08:02:04.922Z,8.13
2023-04-16T08:04:31.716Z,8.19
2023-04-16T08:06:58.195Z,8.24
2023-04-16T08:09:28.559Z,8.15
2023-04-16T08:11:55.313Z,8.46
2023-04-16T08:14:21.800Z,8.75
2023-04-16T08:16:48.263Z,8.77
2023-04-16T08:19:14.713Z,8.66
2023-04-16T08:21:41.316Z,8.66
2023-04-16T08:24:08.119Z,8.54
2023-04-16T08:26:34.727Z,8.39
2023-04-16T08:29:01.230Z,8.25
2023-04-16T08:31:27.796Z,8.18
2023-04-16T08:33:54.249Z,8.23
2023-04-16T08:36:21.047Z,8.40
2023-04-16T08:38:47.569Z,8.41
2023-04-16T08:41:14.963Z,8.19
2023-04-16T08:43:45.441Z,8.34
2023-04-16T08:46:12.556Z,8.39
2023-04-16T08:48:42.732Z,8.23
2023-04-16T08:51:11.018Z,8.16
2023-04-16T08:53:49.851Z,8.27
2023-04-16T08:56:21.121Z,8.18
2023-04-16T08:58:48.776Z,8.14
2023-04-16T09:01:17.999Z,8.23
2023-04-16T09:03:47.455Z,8.32
2023-04-16T09:06:15.770Z,8.33
2023-04-16T09:08:44.488Z,8.34
2023-04-16T09:11:12.042Z,8.22
2023-04-16T09:13:38.524Z,8.20
2023-04-16T09:16:07.663Z,8.20
2023-04-16T09:18:34.229Z,8.18
2023-04-16T09:21:00.992Z,8.14
2023-04-16T09:23:27.479Z,8.26
2023-04-16T09:25:54.081Z,8.29
2023-04-16T09:28:43.141Z,8.26
2023-04-16T09:31:14.296Z,8.05
2023-04-16T09:33:41.404Z,8.06
2023-04-16T09:36:08.002Z,8.20
2023-04-16T09:38:51.830Z,8.39
2023-04-16T09:41:18.998Z,8.34
2023-04-16T09:44:00.476Z,8.29
2023-04-16T09:46:30.081Z,8.23
2023-04-16T09:48:56.756Z,8.29
2023-04-16T09:51:24.775Z,8.24
2023-04-16T09:53:56.977Z,8.19
2023-04-16T09:56:27.870Z,8.18
2023-04-16T09:59:00.306Z,8.27
2023-04-16T10:01:26.782Z,8.37
2023-04-16T10:03:55.691Z,8.40
2023-04-16T10:06:23.390Z,8.40
2023-04-16T10:08:51.330Z,8.48
2023-04-16T10:11:19.133Z,8.52
2023-04-16T10:13:45.936Z,8.62
2023-04-16T10:16:12.571Z,8.45
2023-04-16T10:18:41.431Z,8.50
2023-04-16T10:21:11.564Z,8.51
2023-04-16T10:23:42.302Z,8.43
2023-04-16T10:26:09.320Z,8.25
2023-04-16T10:28:36.213Z,8.27
2023-04-16T10:31:05.613Z,8.03
2023-04-16T10:33:34.341Z,8.21
2023-04-16T10:36:12.275Z,8.15
2023-04-16T10:38:41.091Z,8.14
2023-04-16T10:41:09.413Z,8.12
2023-04-16T10:43:48.521Z,8.16
2023-04-16T10:46:18.098Z,8.26
2023-04-16T10:51:29.354Z,8.49
2023-04-16T10:54:16.775Z,8.48
2023-04-16T10:56:44.955Z,8.44
2023-04-16T10:59:11.961Z,8.43
2023-04-16T11:01:43.555Z,8.39
2023-04-16T11:04:19.305Z,8.34
2023-04-16T11:07:19.266Z,8.28
2023-04-16T11:09:59.977Z,8.24
2023-04-16T11:12:29.896Z,8.18
2023-04-16T11:15:00.494Z,8.28
2023-04-16T11:17:43.635Z,8.19
2023-04-16T11:20:19.474Z,8.15
2023-04-16T11:22:47.477Z,8.11
2023-04-16T11:25:19.975Z,8.12
2023-04-16T11:27:46.392Z,8.35
2023-04-16T11:30:13.585Z,8.48
2023-04-16T11:32:40.576Z,8.52
2023-04-16T11:35:18.259Z,8.37
2023-04-16T11:37:45.920Z,8.62
2023-04-16T11:40:12.948Z,8.53
2023-04-16T11:42:41.089Z,8.55
2023-04-16T11:45:09.722Z,8.58
2023-04-16T11:47:47.178Z,8.59
2023-04-16T11:50:31.632Z,8.38
2023-04-16T11:53:04.752Z,8.53
2023-04-16T11:55:31.268Z,8.50
2023-04-16T11:57:57.752Z,8.43
2023-04-16T12:00:24.897Z,8.48
2023-04-16T12:02:55.370Z,8.51
2023-04-16T12:05:38.569Z,8.50
2023-04-16T12:08:07.307Z,8.65
2023-04-16T12:10:35.988Z,8.62
2023-04-16T12:13:16.319Z,8.70
2023-04-16T12:15:54.036Z,8.73
2023-04-16T12:18:23.842Z,8.80
2023-04-16T12:20:53.460Z,8.78
2023-04-16T12:23:28.744Z,8.75
2023-04-16T12:25:55.967Z,8.68
2023-04-16T12:28:38.252Z,8.62
2023-04-16T12:31:05.838Z,8.76
2023-04-16T12:33:32.485Z,8.80
2023-04-16T12:35:59.092Z,8.77
2023-04-16T12:38:26.696Z,8.80
2023-04-16T12:40:56.697Z,8.86
2023-04-16T12:43:24.031Z,9.11
2023-04-16T12:45:50.659Z,9.14
2023-04-16T12:48:17.237Z,9.31
2023-04-16T12:50:44.402Z,9.23
2023-04-16T12:53:11.734Z,9.32
2023-04-16T12:55:38.323Z,9.48
2023-04-16T12:58:04.858Z,9.24
2023-04-16T13:00:31.413Z,9.25
2023-04-16T13:02:58.154Z,9.24
2023-04-16T13:05:24.731Z,9.17
2023-04-16T13:07:51.319Z,9.03
2023-04-16T13:10:18.049Z,9.09
2023-04-16T13:12:46.521Z,9.10
2023-04-16T13:15:13.091Z,9.10
2023-04-16T13:17:39.691Z,9.11
2023-04-16T13:20:06.691Z,9.33
2023-04-16T13:22:33.726Z,9.27
2023-04-16T13:25:00.411Z,9.44
2023-04-16T13:27:26.996Z,9.55
2023-04-16T13:29:53.584Z,9.72
2023-04-16T13:32:20.416Z,9.79
2023-04-16T13:34:47.219Z,9.65
2023-04-16T13:37:13.912Z,9.71
2023-04-16T13:39:40.613Z,9.46
2023-04-16T13:42:07.181Z,9.47
2023-04-16T13:44:33.833Z,9.50
2023-04-16T13:47:00.594Z,9.63
2023-04-16T13:49:27.288Z,9.66
2023-04-16T13:51:53.839Z,9.67
2023-04-16T13:54:20.546Z,9.70
2023-04-16T13:56:47.060Z,9.85
2023-04-16T13:59:15.682Z,9.93
2023-04-16T14:01:42.470Z,9.97
2023-04-16T14:04:09.127Z,10.02
2023-04-16T14:06:35.928Z,9.84
2023-04-16T14:09:02.521Z,9.87
2023-04-16T14:11:29.046Z,10.01
2023-04-16T14:13:55.827Z,10.05
2023-04-16T14:16:22.441Z,10.15
2023-04-16T14:18:49.038Z,10.24
2023-04-16T14:21:15.654Z,10.32
2023-04-16T14:23:42.127Z,10.38
2023-04-16T14:26:08.555Z,10.39
2023-04-16T14:28:35.738Z,10.65
2023-04-16T14:31:02.224Z,10.48
2023-04-16T14:33:28.732Z,10.59
2023-04-16T14:35:55.435Z,10.59
2023-04-16T14:38:21.901Z,10.68
2023-04-16T14:40:48.815Z,10.86
2023-04-16T14:43:15.345Z,10.89
2023-04-16T14:45:41.850Z,11.11
2023-04-16T14:48:08.564Z,11.28
2023-04-16T14:50:38.879Z,11.24
2023-04-16T14:53:05.663Z,11.48
2023-04-16T14:55:32.580Z,11.45
2023-04-16T14:57:59.642Z,11.28
2023-04-16T15:00:27.304Z,11.07
2023-04-16T15:02:55.100Z,10.85
2023-04-16T15:05:22.170Z,10.72
2023-04-16T15:07:48.882Z,10.61
2023-04-16T15:10:15.531Z,10.57
2023-04-16T15:12:42.091Z,10.53
2023-04-16T15:15:09.487Z,10.52
2023-04-16T15:17:36.095Z,10.53
2023-04-16T15:20:06.455Z,10.44
2023-04-16T15:22:32.882Z,10.36
2023-04-16T15:24:59.395Z,10.46
2023-04-16T15:27:26.104Z,10.59
2023-04-16T15:29:53.966Z,10.55
2023-04-16T15:32:20.601Z,10.65
2023-04-16T15:34:47.067Z,10.54
2023-04-16T15:37:13.530Z,10.77
2023-04-16T15:39:40.774Z,10.78
2023-04-16T15:42:07.946Z,11.15
2023-04-16T15:44:34.766Z,11.11
2023-04-16T15:47:01.273Z,11.11
2023-04-16T15:49:27.877Z,11.29
2023-04-16T15:51:55.444Z,11.47
2023-04-16T15:54:21.920Z,11.41
2023-04-16T15:56:48.428Z,11.41
2023-04-16T15:59:15.060Z,11.33
2023-04-16T16:01:41.564Z,11.50
2023-04-16T16:04:08.355Z,11.53
2023-04-16T16:06:35.651Z,11.50
2023-04-16T16:09:02.153Z,11.48
2023-04-16T16:11:28.656Z,11.35
2023-04-16T16:13:55.137Z,11.13
2023-04-16T16:16:21.935Z,11.08
2023-04-16T16:18:48.734Z,10.92
2023-04-16T16:21:15.297Z,11.12
2023-04-16T16:23:41.995Z,10.91
2023-04-16T16:26:09.193Z,11.11
2023-04-16T16:28:37.798Z,11.12
2023-04-16T16:31:05.970Z,11.24
2023-04-16T16:33:33.080Z,11.21
2023-04-16T16:35:59.529Z,11.27
2023-04-16T16:38:26.159Z,11.10
2023-04-16T16:40:52.733Z,10.82
2023-04-16T16:43:19.486Z,10.64
2023-04-16T16:45:46.416Z,10.47
2023-04-16T16:48:12.907Z,10.46
2023-04-16T16:50:39.436Z,10.34
2023-04-16T16:53:06.224Z,10.28
2023-04-16T16:55:32.653Z,10.26
2023-04-16T16:57:59.134Z,10.20
2023-04-16T17:00:25.751Z,10.15
2023-04-16T17:02:52.525Z,10.12
2023-04-16T17:05:19.793Z,10.06
2023-04-16T17:07:46.673Z,10.08
2023-04-16T17:10:19.934Z,10.03
2023-04-16T17:12:48.320Z,9.99
2023-04-16T17:15:15.442Z,10.12
2023-04-16T17:17:42.274Z,10.09
2023-04-16T17:20:10.677Z,9.88
2023-04-16T17:22:38.749Z,9.86
2023-04-16T17:25:07.539Z,9.79
2023-04-16T17:27:34.382Z,9.76
2023-04-16T17:30:01.799Z,9.63
2023-04-16T17:32:29.315Z,9.62
2023-04-16T17:34:56.347Z,9.66
2023-04-16T17:37:23.240Z,9.57
2023-04-16T17:39:50.150Z,9.51
2023-04-16T17:42:16.848Z,9.38
2023-04-16T17:44:43.430Z,9.30
2023-04-16T17:47:09.876Z,9.17
2023-04-16T17:49:36.404Z,9.10
2023-04-16T17:52:02.859Z,9.09
2023-04-16T17:54:29.333Z,9.02
2023-04-16T17:56:55.855Z,8.95
2023-04-16T17:59:22.313Z,8.89
2023-04-16T18:01:49.598Z,8.84
2023-04-16T18:04:16.673Z,8.78
2023-04-16T18:06:43.577Z,8.73
2023-04-16T18:09:10.264Z,8.65
2023-04-16T18:11:37.075Z,8.59
2023-04-16T18:14:03.509Z,8.56
2023-04-16T18:16:29.949Z,8.50
2023-04-16T18:18:56.580Z,8.51
2023-04-16T18:21:23.070Z,8.52
2023-04-16T18:23:49.518Z,8.47
2023-04-16T18:26:20.430Z,8.57
2023-04-16T18:28:47.553Z,8.52
2023-04-16T18:31:14.105Z,8.61
2023-04-16T18:33:55.485Z,8.58
2023-04-16T18:36:22.564Z,8.54
2023-04-16T18:39:00.002Z,8.57
2023-04-16T18:41:27.929Z,8.57
2023-04-16T18:43:54.486Z,8.40
2023-04-16T18:46:20.972Z,8.31
2023-04-16T18:48:47.459Z,8.16
2023-04-16T18:51:16.060Z,8.06
2023-04-16T18:53:44.441Z,7.94
2023-04-16T18:56:11.614Z,7.93
2023-04-16T18:58:38.210Z,7.84
2023-04-16T19:01:06.098Z,7.89
2023-04-16T19:03:33.270Z,7.84
2023-04-16T19:06:00.074Z,7.80
2023-04-16T19:08:27.077Z,7.69
2023-04-16T19:10:53.540Z,7.68
2023-04-16T19:13:20.155Z,7.73
2023-04-16T19:15:46.730Z,7.71
2023-04-16T19:18:13.239Z,7.70
2023-04-16T19:20:39.697Z,7.68
2023-04-16T19:23:08.309Z,7.74
2023-04-16T19:25:36.349Z,7.70
2023-04-16T19:28:03.733Z,7.67
2023-04-16T19:30:30.956Z,7.67
2023-04-16T19:32:57.499Z,7.63
2023-04-16T19:35:24.241Z,7.70
2023-04-16T19:37:51.071Z,7.65
2023-04-16T19:40:17.730Z,7.65
2023-04-16T19:42:45.360Z,7.60
2023-04-16T19:45:12.030Z,7.50
2023-04-16T19:47:38.668Z,7.36
2023-04-16T19:50:05.810Z,7.23
2023-04-16T19:52:37.319Z,7.15
2023-04-16T19:55:04.916Z,7.01
2023-04-16T19:57:31.400Z,6.77
2023-04-16T19:59:57.886Z,6.66
2023-04-16T20:02:24.651Z,6.74
2023-04-16T20:04:52.917Z,6.80
2023-04-16T20:07:19.981Z,6.63
2023-04-16T20:09:46.465Z,6.56
2023-04-16T20:12:12.985Z,6.56
2023-04-16T20:14:39.433Z,6.22
2023-04-16T20:17:09.736Z,6.17
2023-04-16T20:19:38.358Z,6.18
2023-04-16T20:22:06.513Z,6.07
2023-04-16T20:24:33.008Z,6.01
2023-04-16T20:26:59.724Z,5.99
2023-04-16T20:29:26.192Z,6.20
2023-04-16T20:31:52.771Z,6.24
2023-04-16T20:34:19.226Z,6.11
2023-04-16T20:36:45.796Z,6.23
2023-04-16T20:39:12.627Z,6.32
2023-04-16T20:41:44.043Z,6.24
2023-04-16T20:44:17.921Z,6.30
2023-04-16T20:46:50.772Z,6.32
2023-04-16T20:49:18.405Z,6.30
2023-04-16T20:51:44.936Z,6.33
2023-04-16T20:54:11.495Z,6.41
2023-04-16T20:56:37.940Z,6.47
2023-04-16T20:59:04.439Z,6.60
2023-04-16T21:01:31.025Z,6.64
2023-04-16T21:03:57.755Z,6.67
2023-04-16T21:06:24.456Z,6.64
2023-04-16T21:08:51.092Z,6.65
2023-04-16T21:11:17.573Z,6.59
2023-04-16T21:13:44.082Z,6.57
2023-04-16T21:16:12.389Z,6.57
2023-04-16T21:18:38.975Z,6.52
2023-04-16T21:21:05.557Z,6.49
2023-04-16T21:23:32.014Z,6.45
2023-04-16T21:25:58.493Z,6.38
2023-04-16T21:28:24.994Z,6.55
2023-04-16T21:30:52.387Z,6.48
2023-04-16T21:33:18.927Z,6.50
2023-04-16T21:35:50.865Z,6.59
2023-04-16T21:38:17.317Z,6.47
2023-04-16T21:40:45.724Z,6.58
2023-04-16T21:43:12.212Z,6.55
2023-04-16T21:45:39.692Z,6.57
2023-04-16T21:48:06.600Z,6.58
2023-04-16T21:50:33.294Z,6.74
2023-04-16T21:52:59.798Z,6.74
2023-04-16T21:55:26.260Z,6.74
2023-04-16T21:57:52.722Z,6.88
2023-04-16T22:00:19.463Z,6.87
2023-04-16T22:02:46.082Z,6.87
2023-04-16T22:05:12.719Z,7.07
2023-04-16T22:07:39.317Z,7.08
2023-04-16T22:10:06.781Z,7.06
2023-04-16T22:12:33.275Z,7.07
2023-04-16T22:15:02.731Z,6.98
2023-04-16T22:17:30.088Z,7.02
2023-04-16T22:20:00.470Z,7.04
2023-04-16T22:22:26.913Z,7.19
2023-04-16T22:24:53.489Z,7.44
2023-04-16T22:27:19.940Z,7.47
2023-04-16T22:29:46.392Z,7.58
2023-04-16T22:32:12.950Z,7.58
2023-04-16T22:34:39.399Z,7.59
2023-04-16T22:37:05.935Z,7.56
2023-04-16T22:39:32.398Z,7.40
2023-04-16T22:41:58.904Z,7.50
2023-04-16T22:44:25.543Z,7.51
2023-04-16T22:46:52.071Z,7.33
2023-04-16T22:49:18.562Z,7.41
2023-04-16T22:51:45.045Z,7.46
2023-04-16T22:54:13.669Z,7.39
2023-04-16T22:56:40.921Z,7.48
2023-04-16T22:59:07.762Z,7.56
2023-04-16T23:01:35.120Z,7.53
2023-04-16T23:04:01.872Z,7.43
2023-04-16T23:06:28.344Z,7.53
2023-04-16T23:08:54.822Z,7.50
2023-04-16T23:11:21.274Z,7.47
2023-04-16T23:13:47.834Z,7.53
2023-04-16T23:16:14.318Z,7.63
2023-04-16T23:18:40.797Z,7.41
2023-04-16T23:21:07.318Z,7.58
2023-04-16T23:23:33.776Z,7.58
2023-04-16T23:26:02.446Z,7.56
2023-04-16T23:28:28.941Z,7.59
2023-04-16T23:30:55.573Z,7.65
2023-04-16T23:33:22.146Z,7.63
2023-04-16T23:35:48.651Z,7.77
2023-04-16T23:38:15.126Z,7.74
2023-04-16T23:40:41.617Z,7.75
2023-04-16T23:43:08.052Z,7.60
2023-04-16T23:45:34.615Z,7.74
2023-04-16T23:48:01.118Z,7.78
2023-04-16T23:50:27.645Z,7.62
2023-04-16T23:52:54.158Z,7.68
2023-04-16T23:55:20.962Z,7.72
2023-04-16T23:57:47.467Z,7.74
